Time;durP1;ratioP1;P1;durP2;ratioP2;P2;SDS_P1;SDS_P2;PMS_P1;PMS_P2;Temp;Humidity;BMP_temperature;BMP_pressure;BME280_temperature;BME280_humidity;BME280_pressure;Samples;Min_cycle;Max_cycle;Signal;HPM_P1;HPM_P2
2021/06/10 00:02:26;;;;;;;12.65;6.90;;;17.70;99.90;;;;;;5113456;28;20644;-79
2021/06/10 00:04:52;;;;;;;13.20;6.82;;;17.60;99.90;;;;;;5113603;28;20178;-79
2021/06/10 00:07:18;;;;;;;12.15;7.68;;;17.50;99.90;;;;;;5112829;28;20702;-79
2021/06/10 00:09:45;;;;;;;9.82;7.53;;;17.50;99.90;;;;;;5114581;28;20178;-79
2021/06/10 00:12:12;;;;;;;11.82;7.25;;;17.50;99.90;;;;;;5115134;28;20233;-79
2021/06/10 00:14:38;;;;;;;11.60;7.18;;;17.50;99.90;;;;;;5116934;28;20178;-79
2021/06/10 00:17:04;;;;;;;12.48;7.50;;;17.50;99.90;;;;;;5115528;28;20182;-80
2021/06/10 00:19:30;;;;;;;11.48;7.43;;;17.40;99.90;;;;;;5115569;28;20652;-79
2021/06/10 00:21:55;;;;;;;11.10;7.05;;;17.40;99.90;;;;;;5116722;28;20213;-80
2021/06/10 00:24:21;;;;;;;10.07;7.35;;;17.40;99.90;;;;;;5116646;28;20253;-80
2021/06/10 00:26:47;;;;;;;13.10;7.30;;;17.30;99.90;;;;;;5116608;28;20177;-79
2021/06/10 00:29:13;;;;;;;9.73;7.50;;;17.30;99.90;;;;;;5116327;28;20562;-79
2021/06/10 00:31:38;;;;;;;10.10;7.25;;;17.30;99.90;;;;;;5116126;28;20230;-80
2021/06/10 00:34:04;;;;;;;12.02;8.35;;;17.20;99.90;;;;;;5116459;28;20529;-79
2021/06/10 00:36:30;;;;;;;10.52;7.40;;;17.20;99.90;;;;;;5116689;28;20202;-79
2021/06/10 00:38:56;;;;;;;12.48;8.10;;;17.20;99.90;;;;;;5116385;28;20174;-79
2021/06/10 00:41:22;;;;;;;11.90;7.70;;;17.10;99.90;;;;;;5116029;28;20579;-79
2021/06/10 00:43:48;;;;;;;10.02;7.88;;;17.10;99.90;;;;;;5116317;28;20170;-79
2021/06/10 00:46:14;;;;;;;10.80;8.05;;;17.10;99.90;;;;;;5116092;28;20260;-79
2021/06/10 00:48:40;;;;;;;16.25;8.88;;;17.10;99.90;;;;;;5116356;28;20264;-79
2021/06/10 00:51:07;;;;;;;10.00;8.30;;;17.00;99.90;;;;;;5116278;28;20186;-79
2021/06/10 00:53:34;;;;;;;11.20;8.50;;;17.10;99.90;;;;;;5115524;28;20174;-78
2021/06/10 00:56:02;;;;;;;14.52;7.93;;;17.10;99.90;;;;;;5115945;28;20205;-79
2021/06/10 00:58:28;;;;;;;14.95;9.07;;;17.10;99.90;;;;;;5115794;28;20653;-79
2021/06/10 01:00:55;;;;;;;12.57;9.00;;;17.00;99.90;;;;;;5116054;28;20233;-79
2021/06/10 01:03:21;;;;;;;12.07;9.15;;;17.00;99.90;;;;;;5115914;28;20178;-79
2021/06/10 01:05:59;;;;;;;12.02;8.15;;;17.10;99.90;;;;;;5115593;28;20230;-79
2021/06/10 01:08:37;;;;;;;15.90;8.98;;;17.00;99.90;;;;;;5115999;28;20166;-79
2021/06/10 01:11:29;;;;;;;14.25;9.27;;;17.00;99.90;;;;;;5117665;28;20170;-78
2021/06/10 01:14:05;;;;;;;11.20;8.98;;;16.90;99.90;;;;;;5115918;28;20175;-78
2021/06/10 01:16:36;;;;;;;12.23;9.27;;;16.90;99.90;;;;;;5115547;28;20637;-78
2021/06/10 01:19:26;;;;;;;15.98;8.35;;;16.90;99.90;;;;;;5116351;28;20165;-78
2021/06/10 01:21:55;;;;;;;12.52;9.13;;;16.80;99.90;;;;;;5114888;28;20214;-78
2021/06/10 01:24:49;;;;;;;13.55;9.70;;;16.80;99.90;;;;;;5121327;28;20227;-78
2021/06/10 01:27:27;;;;;;;14.00;9.50;;;16.80;99.90;;;;;;5124171;28;20194;-78
2021/06/10 01:30:03;;;;;;;12.65;9.57;;;16.70;99.90;;;;;;5122067;28;20261;-78
2021/06/10 01:32:30;;;;;;;12.55;9.63;;;16.70;99.90;;;;;;5122878;28;20169;-78
2021/06/10 01:34:56;;;;;;;13.88;9.82;;;16.70;99.90;;;;;;5118729;28;20209;-79
2021/06/10 01:37:24;;;;;;;13.25;9.85;;;16.60;99.90;;;;;;5114892;28;20174;-78
2021/06/10 01:39:50;;;;;;;14.60;9.52;;;16.50;99.90;;;;;;5114672;28;20649;-78
2021/06/10 01:42:17;;;;;;;15.75;10.50;;;16.60;99.90;;;;;;5113314;28;20208;-78
2021/06/10 01:44:44;;;;;;;14.05;9.35;;;16.60;99.90;;;;;;5113835;28;20653;-78
2021/06/10 01:47:11;;;;;;;14.05;10.20;;;16.50;99.90;;;;;;5114670;28;20178;-79
2021/06/10 01:49:38;;;;;;;13.32;10.10;;;16.40;99.90;;;;;;5113624;28;20635;-78
2021/06/10 01:52:06;;;;;;;13.65;10.07;;;16.30;99.90;;;;;;5115253;28;20622;-79
2021/06/10 01:54:33;;;;;;;13.25;10.95;;;16.30;99.90;;;;;;5115261;28;20702;-79
2021/06/10 01:57:01;;;;;;;15.50;10.07;;;16.30;99.90;;;;;;5113499;28;20185;-79
2021/06/10 01:59:28;;;;;;;12.38;9.65;;;16.20;99.90;;;;;;5113268;28;20812;-79
2021/06/10 02:01:57;;;;;;;14.05;10.38;;;16.20;99.90;;;;;;5114915;28;20220;-78
2021/06/10 02:04:23;;;;;;;12.95;9.98;;;16.10;99.90;;;;;;5115348;28;20203;-79
2021/06/10 02:06:50;;;;;;;13.98;10.73;;;16.10;99.90;;;;;;5115639;28;20181;-79
2021/06/10 02:09:18;;;;;;;16.90;10.82;;;16.10;99.90;;;;;;5115304;28;20174;-79
2021/06/10 02:11:45;;;;;;;15.55;10.10;;;16.00;99.90;;;;;;5115035;28;20229;-79
2021/06/10 02:14:11;;;;;;;16.80;10.63;;;16.00;99.90;;;;;;5114567;28;20165;-79
2021/06/10 02:16:39;;;;;;;13.55;10.85;;;16.00;99.90;;;;;;5113644;28;20534;-78
2021/06/10 02:19:05;;;;;;;13.68;11.00;;;16.00;99.90;;;;;;5114610;28;20207;-79
2021/06/10 02:21:31;;;;;;;14.90;11.02;;;16.00;99.90;;;;;;5114307;28;20205;-79
2021/06/10 02:23:57;;;;;;;12.93;10.07;;;15.90;99.90;;;;;;5114402;28;20244;-79
2021/06/10 02:26:23;;;;;;;16.15;10.43;;;15.90;99.90;;;;;;5112714;28;20257;-80
2021/06/10 02:28:49;;;;;;;15.07;10.65;;;15.90;99.90;;;;;;5114209;28;20203;-80
2021/06/10 02:31:15;;;;;;;13.68;10.10;;;16.00;99.90;;;;;;5114047;28;20209;-80
2021/06/10 02:33:43;;;;;;;15.25;10.43;;;16.00;99.90;;;;;;5113987;28;20182;-79
2021/06/10 02:36:12;;;;;;;17.00;10.88;;;16.00;99.90;;;;;;5114041;28;20170;-79
2021/06/10 02:38:42;;;;;;;13.55;9.60;;;16.10;99.90;;;;;;5114260;28;20205;-80
2021/06/10 02:41:10;;;;;;;16.35;10.20;;;16.10;99.90;;;;;;5113968;28;20193;-79
2021/06/10 02:43:38;;;;;;;17.27;9.98;;;16.10;99.90;;;;;;5113795;28;20208;-79
2021/06/10 02:46:06;;;;;;;15.30;10.50;;;16.10;99.90;;;;;;5114092;28;20208;-79
2021/06/10 02:48:32;;;;;;;12.73;9.50;;;16.10;99.90;;;;;;5113476;28;20605;-79
2021/06/10 02:50:59;;;;;;;13.30;9.85;;;16.20;99.90;;;;;;5113939;28;20649;-79
2021/06/10 02:53:29;;;;;;;10.98;9.38;;;16.20;99.90;;;;;;5113616;28;20251;-79
2021/06/10 02:55:56;;;;;;;13.00;10.13;;;16.20;99.90;;;;;;5113872;28;20181;-79
2021/06/10 02:58:23;;;;;;;10.90;9.30;;;16.30;99.90;;;;;;5113699;28;20173;-78
2021/06/10 03:00:49;;;;;;;12.85;9.73;;;16.30;99.90;;;;;;5113811;28;20206;-79
2021/06/10 03:03:16;;;;;;;17.17;10.07;;;16.30;99.90;;;;;;5113478;28;20174;-81
2021/06/10 03:05:43;;;;;;;13.23;9.05;;;16.30;99.90;;;;;;5113892;28;20178;-79
2021/06/10 03:08:14;;;;;;;12.55;9.82;;;16.40;99.90;;;;;;5113631;28;20529;-79
2021/06/10 03:10:41;;;;;;;12.27;9.65;;;16.40;99.90;;;;;;5113363;28;20182;-79
2021/06/10 03:13:08;;;;;;;14.75;9.25;;;16.40;99.90;;;;;;5113264;28;20232;-79
2021/06/10 03:15:36;;;;;;;11.68;8.90;;;16.50;99.90;;;;;;5113332;28;20166;-79
2021/06/10 03:18:04;;;;;;;11.75;9.43;;;16.50;99.90;;;;;;5113298;28;20641;-79
2021/06/10 03:20:30;;;;;;;14.45;9.48;;;16.60;99.90;;;;;;5111790;28;20220;-80
2021/06/10 03:22:56;;;;;;;11.13;9.80;;;16.50;99.90;;;;;;5113320;28;20516;-79
2021/06/10 03:25:23;;;;;;;13.63;9.63;;;16.60;99.90;;;;;;5111817;28;20257;-79
2021/06/10 03:27:50;;;;;;;13.63;9.93;;;16.60;99.90;;;;;;5112297;28;20185;-79
2021/06/10 03:30:17;;;;;;;12.50;9.48;;;16.60;99.90;;;;;;5113746;28;20185;-79
2021/06/10 03:32:43;;;;;;;13.05;9.05;;;16.60;99.90;;;;;;5113462;28;20591;-79
2021/06/10 03:35:10;;;;;;;12.32;9.25;;;16.60;99.90;;;;;;5112537;28;20251;-79
2021/06/10 03:37:38;;;;;;;15.18;9.48;;;16.70;99.90;;;;;;5113392;28;20174;-79
2021/06/10 03:40:05;;;;;;;14.02;9.93;;;16.70;99.90;;;;;;5113341;28;20185;-78
2021/06/10 03:42:32;;;;;;;16.02;10.30;;;16.70;99.90;;;;;;5113105;28;20206;-79
2021/06/10 03:44:58;;;;;;;15.85;10.68;;;16.70;99.90;;;;;;5117033;28;20257;-79
2021/06/10 03:47:25;;;;;;;13.60;10.60;;;16.70;99.90;;;;;;5117202;28;20231;-79
2021/06/10 03:49:50;;;;;;;13.57;10.98;;;16.70;99.90;;;;;;5117182;28;20173;-78
2021/06/10 03:52:16;;;;;;;16.17;10.38;;;16.70;99.90;;;;;;5117466;28;20694;-79
2021/06/10 03:54:42;;;;;;;14.10;10.88;;;16.70;99.90;;;;;;5117048;28;20174;-79
2021/06/10 03:57:08;;;;;;;13.90;10.85;;;16.60;99.90;;;;;;5117734;28;20619;-79
2021/06/10 03:59:34;;;;;;;13.95;11.38;;;16.60;99.90;;;;;;5117172;28;20208;-79
2021/06/10 04:02:00;;;;;;;13.02;10.77;;;16.60;99.90;;;;;;5117147;28;20241;-79
2021/06/10 04:04:27;;;;;;;15.40;11.25;;;16.50;99.90;;;;;;5115805;28;20262;-79
2021/06/10 04:06:53;;;;;;;12.50;9.85;;;16.60;99.90;;;;;;5117219;28;20238;-78
2021/06/10 04:09:19;;;;;;;13.23;10.50;;;16.60;99.90;;;;;;5116931;28;20174;-78
2021/06/10 04:11:45;;;;;;;14.15;10.35;;;16.60;99.90;;;;;;5116763;28;20308;-78
2021/06/10 04:14:11;;;;;;;19.77;10.13;;;16.60;99.90;;;;;;5117076;28;20166;-78
2021/06/10 04:16:36;;;;;;;13.82;10.35;;;16.60;99.90;;;;;;5115514;28;20174;-79
2021/06/10 04:19:02;;;;;;;15.18;10.48;;;16.70;99.90;;;;;;5116821;28;20198;-79
2021/06/10 04:21:28;;;;;;;13.65;10.90;;;16.70;99.90;;;;;;5116380;28;20205;-79
2021/06/10 04:23:54;;;;;;;22.13;10.48;;;16.80;99.90;;;;;;5116847;28;20184;-79
2021/06/10 04:26:20;;;;;;;13.90;10.30;;;16.80;99.90;;;;;;5115439;28;20182;-79
2021/06/10 04:28:47;;;;;;;15.85;10.30;;;16.80;99.90;;;;;;5116240;28;20173;-79
2021/06/10 04:31:16;;;;;;;13.95;10.32;;;16.90;99.90;;;;;;5116776;28;20187;-79
2021/06/10 04:33:43;;;;;;;12.90;8.98;;;16.90;99.90;;;;;;5116112;28;20174;-79
2021/06/10 04:36:10;;;;;;;13.55;9.05;;;17.00;99.90;;;;;;5116148;28;20181;-79
2021/06/10 04:38:36;;;;;;;13.10;8.98;;;17.00;99.90;;;;;;5114999;28;20174;-79
2021/06/10 04:41:02;;;;;;;11.18;8.95;;;17.00;99.90;;;;;;5116451;28;20205;-79
2021/06/10 04:43:28;;;;;;;12.63;9.18;;;17.10;99.90;;;;;;5115840;28;20202;-79
2021/06/10 04:45:56;;;;;;;10.50;7.70;;;17.10;99.90;;;;;;5115300;28;20202;-79
2021/06/10 04:48:22;;;;;;;14.25;8.85;;;17.10;99.90;;;;;;5115810;28;20525;-79
2021/06/10 04:50:48;;;;;;;13.77;8.20;;;17.10;99.90;;;;;;5114710;28;20178;-79
2021/06/10 04:53:14;;;;;;;11.18;8.20;;;17.20;99.90;;;;;;5116127;28;20185;-79
2021/06/10 04:55:40;;;;;;;7.70;6.15;;;17.20;99.90;;;;;;5115566;28;20204;-79
2021/06/10 04:58:06;;;;;;;11.10;7.10;;;17.30;99.90;;;;;;5114795;28;20170;-79
2021/06/10 05:00:33;;;;;;;11.80;7.40;;;17.30;99.90;;;;;;5115945;28;20552;-79
2021/06/10 05:02:59;;;;;;;7.15;6.18;;;17.40;99.90;;;;;;5115806;28;20186;-79
2021/06/10 05:05:25;;;;;;;11.35;7.18;;;17.40;99.90;;;;;;5115811;28;20181;-79
2021/06/10 05:07:51;;;;;;;10.77;6.00;;;17.50;99.90;;;;;;5114735;28;20544;-80
2021/06/10 05:10:17;;;;;;;8.95;6.47;;;17.60;99.90;;;;;;5116023;28;20196;-80
2021/06/10 05:12:42;;;;;;;10.38;6.10;;;17.70;99.90;;;;;;5113961;28;20631;-79
2021/06/10 05:15:09;;;;;;;7.53;5.88;;;17.80;99.90;;;;;;5114617;28;20186;-80
2021/06/10 05:17:34;;;;;;;7.88;5.55;;;17.80;99.90;;;;;;5115710;28;20174;-81
2021/06/10 05:20:00;;;;;;;7.95;5.70;;;17.90;99.90;;;;;;5115544;28;20189;-81
2021/06/10 05:22:27;;;;;;;14.50;5.63;;;17.90;99.90;;;;;;5115499;28;20170;-80
2021/06/10 05:24:53;;;;;;;8.73;5.50;;;17.90;99.90;;;;;;5115344;28;20174;-79
2021/06/10 05:27:19;;;;;;;8.93;5.10;;;17.90;99.90;;;;;;5115387;28;20689;-81
2021/06/10 05:29:44;;;;;;;12.48;4.90;;;18.00;99.90;;;;;;5115305;28;20223;-81
2021/06/10 05:32:10;;;;;;;8.27;5.32;;;18.00;99.90;;;;;;5115018;28;20178;-80
2021/06/10 05:34:36;;;;;;;5.30;4.72;;;18.00;99.90;;;;;;5113358;28;20632;-80
2021/06/10 05:37:02;;;;;;;8.13;5.03;;;18.00;99.90;;;;;;5114958;28;20222;-80
2021/06/10 05:39:27;;;;;;;6.65;5.30;;;17.90;99.90;;;;;;5114925;28;20185;-80
2021/06/10 05:41:54;;;;;;;7.80;4.68;;;17.90;99.90;;;;;;5113265;28;20205;-80
2021/06/10 05:44:20;;;;;;;9.25;4.80;;;18.00;99.90;;;;;;5114650;28;20186;-79
2021/06/10 05:46:48;;;;;;;7.40;5.15;;;18.00;99.90;;;;;;5114742;28;20219;-81
2021/06/10 05:49:15;;;;;;;6.60;5.43;;;18.00;99.90;;;;;;5114571;28;20192;-80
2021/06/10 05:51:41;;;;;;;10.43;5.63;;;18.10;99.90;;;;;;5114465;28;20178;-80
2021/06/10 05:54:06;;;;;;;7.75;5.18;;;18.10;99.90;;;;;;5113583;28;20188;-79
2021/06/10 05:56:32;;;;;;;9.77;5.22;;;18.10;99.90;;;;;;5114694;28;20174;-80
2021/06/10 05:58:58;;;;;;;9.13;6.18;;;18.10;99.90;;;;;;5113302;28;20235;-80
2021/06/10 06:01:23;;;;;;;9.00;6.82;;;18.30;99.90;;;;;;5114117;28;20206;-79
2021/06/10 06:03:49;;;;;;;9.95;6.63;;;18.40;99.90;;;;;;5112933;28;20298;-80
2021/06/10 06:06:19;;;;;;;10.60;6.65;;;18.50;99.90;;;;;;5114047;27;20234;-80
2021/06/10 06:08:45;;;;;;;8.25;6.10;;;18.60;99.90;;;;;;5113679;28;20173;-80
2021/06/10 06:11:11;;;;;;;10.38;6.22;;;18.60;99.90;;;;;;5113462;28;20185;-81
2021/06/10 06:13:48;;;;;;;8.60;6.00;;;18.70;99.90;;;;;;5083130;28;20231;-80
2021/06/10 06:16:17;;;;;;;7.38;4.97;;;18.90;99.90;;;;;;5094637;28;20169;-82
2021/06/10 06:18:43;;;;;;;7.75;5.50;;;18.90;99.90;;;;;;5099583;28;20269;-80
2021/06/10 06:21:09;;;;;;;6.10;5.25;;;18.90;99.90;;;;;;5112734;28;20580;-81
2021/06/10 06:23:35;;;;;;;9.00;5.35;;;18.90;99.90;;;;;;5114558;28;20177;-82
2021/06/10 06:26:01;;;;;;;8.23;4.82;;;18.80;99.90;;;;;;5113272;28;20224;-82
2021/06/10 06:28:27;;;;;;;19.48;4.60;;;18.70;99.90;;;;;;5105477;28;20187;-81
2021/06/10 06:30:54;;;;;;;14.57;5.18;;;18.60;99.90;;;;;;5099579;28;20197;-81
2021/06/10 06:33:19;;;;;;;5.47;4.13;;;18.60;99.90;;;;;;5109512;28;20272;-83
2021/06/10 06:35:45;;;;;;;5.30;4.05;;;18.50;99.90;;;;;;5098645;28;20320;-81
2021/06/10 06:38:12;;;;;;;7.28;3.90;;;18.40;99.90;;;;;;5111227;28;20182;-82
2021/06/10 06:40:38;;;;;;;5.28;3.83;;;18.20;99.90;;;;;;5110603;28;20206;-82
2021/06/10 06:43:05;;;;;;;4.03;3.63;;;18.10;99.90;;;;;;5103969;28;20213;-81
2021/06/10 06:45:31;;;;;;;8.02;4.10;;;18.00;99.90;;;;;;5108781;28;20181;-82
2021/06/10 06:47:57;;;;;;;9.30;4.75;;;18.00;99.90;;;;;;5107236;28;20190;-82
2021/06/10 06:50:23;;;;;;;8.70;4.38;;;17.90;99.90;;;;;;5108893;28;20188;-82
2021/06/10 06:52:48;;;;;;;4.80;4.03;;;17.80;99.90;;;;;;5115816;27;20185;-82
2021/06/10 06:55:14;;;;;;;7.55;4.80;;;17.70;99.90;;;;;;5112794;27;20181;-82
2021/06/10 06:57:40;;;;;;;7.85;4.13;;;17.70;99.90;;;;;;5109820;28;20542;-82
2021/06/10 07:00:07;;;;;;;7.30;3.80;;;17.70;99.90;;;;;;5110823;28;20262;-81
2021/06/10 07:02:32;;;;;;;3.97;3.25;;;17.70;99.90;;;;;;5106560;28;20190;-82
2021/06/10 07:04:58;;;;;;;3.90;3.28;;;17.70;99.90;;;;;;5109914;28;20192;-82
2021/06/10 07:07:24;;;;;;;10.63;3.70;;;17.70;99.90;;;;;;5113140;28;20226;-81
2021/06/10 07:09:49;;;;;;;3.28;2.97;;;17.80;99.90;;;;;;5109602;28;20190;-81
2021/06/10 07:12:15;;;;;;;4.88;2.95;;;17.90;99.90;;;;;;5110814;28;20970;-80
2021/06/10 07:14:41;;;;;;;6.95;2.88;;;18.00;99.90;;;;;;5111426;28;20658;-81
2021/06/10 07:17:06;;;;;;;10.00;2.78;;;18.00;99.90;;;;;;5109656;28;20268;-81
2021/06/10 07:19:32;;;;;;;5.15;2.60;;;18.10;99.90;;;;;;5111960;28;20173;-81
2021/06/10 07:21:58;;;;;;;3.28;2.80;;;18.20;99.90;;;;;;5114152;28;20261;-79
2021/06/10 07:24:23;;;;;;;4.07;2.78;;;18.20;99.90;;;;;;5119414;27;20177;-80
2021/06/10 07:26:49;;;;;;;5.85;2.90;;;18.30;99.90;;;;;;5113914;28;20198;-81
2021/06/10 07:29:17;;;;;;;6.43;2.85;;;18.50;99.90;;;;;;5113482;28;20181;-82
2021/06/10 07:31:43;;;;;;;4.00;2.35;;;18.40;99.90;;;;;;5091939;28;20231;-81
2021/06/10 07:34:10;;;;;;;4.68;2.92;;;18.40;99.90;;;;;;5104857;28;20231;-81
2021/06/10 07:36:36;;;;;;;7.10;2.67;;;18.30;99.90;;;;;;5115531;28;20318;-81
2021/06/10 07:39:04;;;;;;;6.97;2.70;;;18.30;99.90;;;;;;5106104;28;20589;-81
2021/06/10 07:41:30;;;;;;;6.05;3.00;;;18.20;99.90;;;;;;5094832;28;20221;-81
2021/06/10 07:43:56;;;;;;;4.28;2.40;;;18.20;99.90;;;;;;5093675;28;20261;-81
2021/06/10 07:46:22;;;;;;;6.13;3.08;;;18.30;99.90;;;;;;5110894;28;20635;-81
2021/06/10 07:48:48;;;;;;;5.50;2.50;;;18.30;99.90;;;;;;5101273;28;20189;-81
2021/06/10 07:51:14;;;;;;;4.97;2.40;;;18.30;99.90;;;;;;5115241;28;20567;-82
2021/06/10 07:53:40;;;;;;;3.63;2.25;;;18.50;99.90;;;;;;5115194;28;20192;-82
2021/06/10 07:56:06;;;;;;;5.03;2.22;;;18.50;99.90;;;;;;5115104;28;20182;-82
2021/06/10 07:58:33;;;;;;;4.97;2.58;;;18.50;99.90;;;;;;5116668;27;20734;-82
2021/06/10 08:01:00;;;;;;;3.80;2.15;;;18.60;99.90;;;;;;5114513;28;20229;-82
2021/06/10 08:03:26;;;;;;;4.95;2.42;;;18.70;99.90;;;;;;5115313;28;20178;-82
2021/06/10 08:05:52;;;;;;;3.15;2.50;;;18.80;99.90;;;;;;5114810;28;20186;-82
2021/06/10 08:08:19;;;;;;;4.50;2.40;;;18.90;99.90;;;;;;5115011;28;20654;-82
2021/06/10 08:10:45;;;;;;;5.22;2.40;;;18.90;99.90;;;;;;5097620;28;20638;-83
2021/06/10 08:13:12;;;;;;;3.40;2.28;;;18.90;99.90;;;;;;5114251;28;20225;-82
2021/06/10 08:15:38;;;;;;;7.43;2.30;;;19.00;99.90;;;;;;5113660;28;20205;-83
2021/06/10 08:18:04;;;;;;;6.35;2.25;;;19.00;99.90;;;;;;5111461;28;20174;-82
2021/06/10 08:20:31;;;;;;;3.20;2.00;;;19.20;99.90;;;;;;5095411;28;20218;-82
2021/06/10 08:23:01;;;;;;;2.65;2.10;;;19.20;99.90;;;;;;5111981;28;20560;-82
2021/06/10 08:25:28;;;;;;;4.68;2.47;;;19.20;99.90;;;;;;5121850;28;20239;-82
2021/06/10 08:27:59;;;;;;;3.03;2.20;;;19.20;99.90;;;;;;5111560;28;20193;-82
2021/06/10 08:30:26;;;;;;;11.30;3.20;;;19.20;99.90;;;;;;5113392;28;20638;-82
2021/06/10 08:32:52;;;;;;;5.28;2.50;;;19.30;99.90;;;;;;5111050;28;20196;-82
2021/06/10 08:35:18;;;;;;;5.40;3.20;;;19.20;99.90;;;;;;5114136;28;20642;-82
2021/06/10 08:37:45;;;;;;;5.00;2.85;;;19.20;99.90;;;;;;5113827;28;20189;-83
2021/06/10 08:40:13;;;;;;;5.70;2.88;;;19.20;99.90;;;;;;5095045;28;20187;-82
2021/06/10 08:42:41;;;;;;;3.53;2.70;;;19.20;99.90;;;;;;5093312;28;20273;-82
2021/06/10 08:45:09;;;;;;;6.75;2.70;;;19.20;99.90;;;;;;5093514;28;20186;-83
2021/06/10 08:47:42;;;;;;;9.98;3.10;;;19.30;99.90;;;;;;5091522;28;20201;-82
2021/06/10 08:50:14;;;;;;;5.82;2.92;;;19.30;99.90;;;;;;5093803;28;20178;-82
2021/06/10 08:52:40;;;;;;;5.70;3.05;;;19.30;99.90;;;;;;5112574;28;20193;-82
2021/06/10 08:55:07;;;;;;;4.72;3.17;;;19.40;99.90;;;;;;5112096;28;20190;-82
2021/06/10 08:57:35;;;;;;;3.80;3.17;;;19.50;99.90;;;;;;5113065;28;20327;-83
2021/06/10 09:00:01;;;;;;;5.47;3.47;;;19.50;99.90;;;;;;5113178;28;20189;-83
2021/06/10 09:02:26;;;;;;;6.90;3.40;;;19.60;99.90;;;;;;5109102;28;20561;-84
2021/06/10 09:04:59;;;;;;;7.03;3.30;;;19.60;99.90;;;;;;5109977;28;20182;-83
2021/06/10 09:07:38;;;;;;;5.22;3.10;;;19.70;99.90;;;;;;5095297;28;20626;-83
2021/06/10 09:10:07;;;;;;;9.30;3.72;;;19.80;99.90;;;;;;5110519;28;20272;-83
2021/06/10 09:12:47;;;;;;;3.67;3.38;;;20.10;99.90;;;;;;5106915;28;102217;-83
2021/06/10 09:15:13;;;;;;;4.82;3.78;;;20.30;99.90;;;;;;5091336;28;20182;-83
2021/06/10 09:17:40;;;;;;;6.40;4.13;;;20.40;99.90;;;;;;5111003;28;20182;-83
2021/06/10 09:20:28;;;;;;;4.47;3.42;;;20.60;99.90;;;;;;5120806;27;20182;-82
2021/06/10 09:23:27;;;;;;;5.82;3.80;;;20.70;99.90;;;;;;5113093;28;20174;-83
2021/06/10 09:26:04;;;;;;;6.25;4.50;;;20.60;99.90;;;;;;5110435;28;20178;-82
2021/06/10 09:28:34;;;;;;;10.02;4.75;;;20.60;99.90;;;;;;5113755;28;20223;-82
2021/06/10 09:31:00;;;;;;;7.90;4.20;;;20.70;99.90;;;;;;5113609;28;20665;-82
2021/06/10 09:33:36;;;;;;;6.63;4.85;;;20.70;99.90;;;;;;5114072;28;20203;-83
2021/06/10 09:36:03;;;;;;;6.25;4.65;;;20.80;99.90;;;;;;5107606;28;20169;-82
2021/06/10 09:38:29;;;;;;;7.50;4.55;;;21.00;99.90;;;;;;5108808;28;20223;-83
2021/06/10 09:41:06;;;;;;;5.50;4.60;;;21.20;99.90;;;;;;5092595;28;20210;-83
2021/06/10 09:43:46;;;;;;;9.48;5.28;;;21.50;99.90;;;;;;5093458;28;20652;-83
2021/06/10 09:46:12;;;;;;;6.55;4.72;;;21.50;99.90;;;;;;5093510;28;20210;-82
2021/06/10 09:48:38;;;;;;;5.20;3.90;;;21.80;99.90;;;;;;5092914;28;20202;-83
2021/06/10 09:51:04;;;;;;;5.72;3.33;;;22.00;99.90;;;;;;5091594;28;20663;-82
2021/06/10 09:53:32;;;;;;;2.90;1.73;;;22.10;99.90;;;;;;5092956;28;20197;-82
2021/06/10 09:56:08;;;;;;;1.83;1.73;;;22.40;96.70;;;;;;5087686;28;20594;-83
2021/06/10 09:58:38;;;;;;;2.20;1.90;;;22.60;92.60;;;;;;5114349;27;20228;-83
2021/06/10 10:01:16;;;;;;;4.68;2.20;;;22.70;91.60;;;;;;5110729;28;20237;-81
2021/06/10 10:03:45;;;;;;;4.40;2.05;;;22.90;93.90;;;;;;5109129;28;20269;-80
2021/06/10 10:06:19;;;;;;;4.72;2.22;;;22.90;94.00;;;;;;5110628;28;20186;-80
2021/06/10 10:08:47;;;;;;;5.18;2.70;;;23.10;94.60;;;;;;5108385;28;20541;-81
2021/06/10 10:11:14;;;;;;;6.72;2.92;;;23.20;95.10;;;;;;5124111;28;20194;-80
2021/06/10 10:13:41;;;;;;;6.10;3.50;;;22.90;96.00;;;;;;5116496;28;20586;-80
2021/06/10 10:16:07;;;;;;;3.33;2.88;;;22.80;97.90;;;;;;5122126;28;20207;-81
2021/06/10 10:18:33;;;;;;;6.35;3.22;;;22.60;96.30;;;;;;5113371;28;20277;-80
2021/06/10 10:21:01;;;;;;;5.45;3.90;;;22.70;98.80;;;;;;5095872;28;20868;-81
2021/06/10 10:23:27;;;;;;;7.25;3.45;;;22.90;99.90;;;;;;5104526;28;20178;-80
2021/06/10 10:25:58;;;;;;;5.50;2.13;;;23.10;99.40;;;;;;5109466;28;20231;-80
2021/06/10 10:28:27;;;;;;;4.00;1.77;;;23.10;91.90;;;;;;5101931;28;20182;-81
2021/06/10 10:30:53;;;;;;;2.72;1.70;;;23.00;89.90;;;;;;5106843;28;20189;-81
2021/06/10 10:33:20;;;;;;;1.92;1.45;;;23.10;90.40;;;;;;5107228;28;20377;-81
2021/06/10 10:35:51;;;;;;;2.90;1.48;;;23.20;84.10;;;;;;5111364;28;20618;-80
2021/06/10 10:38:20;;;;;;;8.60;1.50;;;23.50;80.20;;;;;;5105637;28;20185;-82
2021/06/10 10:40:56;;;;;;;3.85;1.58;;;23.50;79.40;;;;;;5110899;28;20193;-80
2021/06/10 10:43:26;;;;;;;4.20;1.90;;;23.60;79.60;;;;;;5110610;28;20205;-83
2021/06/10 10:46:06;;;;;;;8.23;1.95;;;23.60;80.80;;;;;;5110531;28;20174;-81
2021/06/10 10:48:34;;;;;;;3.10;1.70;;;23.80;82.00;;;;;;5108698;28;20190;-83
2021/06/10 10:51:00;;;;;;;10.50;2.03;;;24.00;82.30;;;;;;5110714;28;20189;-80
2021/06/10 10:53:41;;;;;;;2.97;1.92;;;24.10;81.00;;;;;;5111171;28;20174;-81
2021/06/10 10:56:11;;;;;;;2.67;2.05;;;24.10;80.80;;;;;;5108033;28;20185;-82
2021/06/10 10:58:41;;;;;;;2.03;1.83;;;24.10;82.20;;;;;;5114360;27;20531;-81
2021/06/10 11:01:10;;;;;;;5.05;1.80;;;24.20;81.60;;;;;;5107673;28;20662;-82
2021/06/10 11:03:41;;;;;;;2.47;1.67;;;24.30;78.30;;;;;;5108095;28;20181;-81
2021/06/10 11:06:25;;;;;;;3.42;2.00;;;24.30;76.40;;;;;;5107364;28;20652;-80
2021/06/10 11:09:14;;;;;;;2.78;1.85;;;24.20;77.70;;;;;;5103683;28;20170;-81
2021/06/10 11:11:58;;;;;;;2.63;1.70;;;24.10;77.70;;;;;;5108907;28;20549;-81
2021/06/10 11:14:42;;;;;;;4.10;1.52;;;24.00;78.00;;;;;;5105252;28;20403;-81
2021/06/10 11:17:14;;;;;;;1.65;1.55;;;24.10;77.10;;;;;;5104809;28;20178;-83
2021/06/10 11:19:57;;;;;;;8.50;1.67;;;24.10;74.50;;;;;;5108212;28;20265;-82
2021/06/10 11:22:29;;;;;;;2.67;1.65;;;24.00;74.60;;;;;;5110050;28;20653;-82
2021/06/10 11:24:56;;;;;;;4.43;1.75;;;24.10;76.00;;;;;;5107122;28;20189;-82
2021/06/10 11:27:39;;;;;;;4.65;1.83;;;24.20;73.20;;;;;;5109047;28;20192;-82
2021/06/10 11:30:21;;;;;;;2.22;1.90;;;24.20;74.80;;;;;;5105033;28;20235;-83
2021/06/10 11:33:22;;;;;;;2.53;1.70;;;23.90;73.50;;;;;;5109386;28;20690;-82
2021/06/10 11:36:01;;;;;;;4.45;2.72;;;23.90;74.60;;;;;;5111472;28;20205;-82
2021/06/10 11:38:31;;;;;;;6.75;1.80;;;24.10;76.60;;;;;;5109597;28;20198;-81
2021/06/10 11:41:00;;;;;;;5.15;2.10;;;24.20;77.00;;;;;;5110917;28;20205;-82
2021/06/10 11:43:28;;;;;;;1.90;1.80;;;24.50;75.70;;;;;;5109652;28;20182;-82
2021/06/10 11:46:05;;;;;;;5.47;1.95;;;24.50;75.30;;;;;;5110871;28;20186;-82
2021/06/10 11:48:39;;;;;;;3.70;2.40;;;24.60;78.30;;;;;;5109267;28;20173;-80
2021/06/10 11:51:17;;;;;;;2.15;1.70;;;24.60;74.20;;;;;;5108851;28;20268;-82
2021/06/10 11:53:43;;;;;;;4.55;2.30;;;24.40;74.40;;;;;;5110002;28;20207;-81
2021/06/10 11:56:08;;;;;;;7.28;2.45;;;24.30;75.80;;;;;;5104879;28;20183;-82
2021/06/10 11:58:34;;;;;;;3.65;1.48;;;24.40;70.20;;;;;;5106910;28;20650;-81
2021/06/10 12:01:13;;;;;;;2.38;1.73;;;24.50;70.90;;;;;;5109683;28;20678;-81
2021/06/10 12:03:39;;;;;;;1.48;1.38;;;24.60;69.00;;;;;;5111007;28;20182;-81
2021/06/10 12:06:09;;;;;;;2.85;1.45;;;24.70;68.30;;;;;;5112098;28;20181;-82
2021/06/10 12:08:36;;;;;;;4.15;2.20;;;24.60;67.50;;;;;;5111501;28;20221;-82
2021/06/10 12:11:05;;;;;;;4.22;1.40;;;24.70;68.00;;;;;;5114300;28;20170;-82
2021/06/10 12:13:35;;;;;;;4.45;1.60;;;24.70;70.30;;;;;;5111182;28;20222;-81
2021/06/10 12:16:06;;;;;;;2.70;1.42;;;24.90;69.50;;;;;;5112120;28;20181;-81
2021/06/10 12:18:34;;;;;;;1.88;1.63;;;25.00;68.30;;;;;;5105390;28;20225;-81
2021/06/10 12:21:12;;;;;;;6.25;1.30;;;25.20;64.10;;;;;;5109838;28;20226;-82
2021/06/10 12:23:40;;;;;;;2.47;1.65;;;25.10;60.60;;;;;;5112575;28;20181;-82
2021/06/10 12:26:11;;;;;;;1.70;1.52;;;25.10;62.20;;;;;;5112648;28;20192;-82
2021/06/10 12:28:42;;;;;;;3.30;1.77;;;25.00;62.90;;;;;;5114932;28;20178;-82
2021/06/10 12:31:19;;;;;;;2.25;1.48;;;25.00;64.50;;;;;;5112965;28;20280;-81
2021/06/10 12:33:54;;;;;;;4.20;1.70;;;25.10;64.80;;;;;;5112561;28;20201;-81
2021/06/10 12:36:25;;;;;;;1.95;1.40;;;25.20;63.80;;;;;;5113270;27;20200;-81
2021/06/10 12:38:59;;;;;;;1.88;1.60;;;25.20;63.60;;;;;;5112869;28;20226;-82
2021/06/10 12:41:27;;;;;;;1.88;1.60;;;25.30;61.10;;;;;;5111098;28;20700;-82
2021/06/10 12:44:08;;;;;;;3.53;1.50;;;25.20;61.30;;;;;;5113880;28;20692;-82
2021/06/10 12:46:43;;;;;;;3.30;2.08;;;25.30;61.10;;;;;;5111144;28;20174;-82
2021/06/10 12:49:09;;;;;;;4.10;2.10;;;25.30;61.20;;;;;;5109171;28;20247;-81